createdAt,value
2022-08-26T00:00:50.183Z,9.719558
2022-08-26T00:01:50.217Z,9.719579
2022-08-26T00:02:50.162Z,9.719590
2022-08-26T00:03:50.183Z,9.719615
2022-08-26T00:04:50.213Z,9.719657
2022-08-26T00:05:50.131Z,9.719693
2022-08-26T00:06:50.141Z,9.719652
2022-08-26T00:07:50.111Z,9.719633
2022-08-26T00:08:50.103Z,9.719657
2022-08-26T00:09:50.176Z,9.719643
2022-08-26T00:10:50.086Z,9.719631
2022-08-26T00:11:50.088Z,9.719648
2022-08-26T00:12:50.065Z,9.719673
2022-08-26T00:13:50.053Z,9.719663
2022-08-26T00:14:50.045Z,9.719702
2022-08-26T00:15:50.053Z,9.719636
2022-08-26T00:16:50.077Z,9.719651
2022-08-26T00:17:50.016Z,9.719677
2022-08-26T00:18:50.007Z,9.719675
2022-08-26T00:19:49.996Z,9.719700
2022-08-26T00:20:50.019Z,9.719675
2022-08-26T00:21:49.988Z,9.719655
2022-08-26T00:22:49.969Z,9.719662
2022-08-26T00:23:50.015Z,9.719651
2022-08-26T00:24:49.946Z,9.719646
2022-08-26T00:25:49.929Z,9.719645
2022-08-26T00:26:49.967Z,9.719662
2022-08-26T00:27:49.919Z,9.719643
2022-08-26T00:28:49.912Z,9.719630
2022-08-26T00:29:49.899Z,9.719607
2022-08-26T00:30:51.611Z,9.719658
2022-08-26T00:31:49.939Z,9.719634
2022-08-26T00:32:49.874Z,9.719627
2022-08-26T00:33:49.862Z,9.719640
2022-08-26T00:34:49.852Z,9.719601
2022-08-26T00:35:49.843Z,9.719633
2022-08-26T00:36:52.020Z,9.719659
2022-08-26T00:37:49.848Z,9.719677
2022-08-26T00:38:49.820Z,9.719573
2022-08-26T00:39:49.853Z,9.719640
2022-08-26T00:40:49.800Z,9.719616
2022-08-26T00:41:49.801Z,9.719629
2022-08-26T00:42:49.779Z,9.719622
2022-08-26T00:43:49.764Z,9.719631
2022-08-26T00:44:49.761Z,9.719651
2022-08-26T00:45:49.775Z,9.719651
2022-08-26T00:46:49.758Z,9.719647
2022-08-26T00:47:49.726Z,9.719611
2022-08-26T00:48:49.719Z,9.719650
2022-08-26T00:49:49.705Z,9.719631
2022-08-26T00:50:49.699Z,9.719596
2022-08-26T00:51:49.709Z,9.719597
2022-08-26T00:52:49.680Z,9.719612
2022-08-26T00:53:49.666Z,9.719630
2022-08-26T00:54:49.663Z,9.719636
2022-08-26T00:55:49.642Z,9.719637
2022-08-26T00:56:49.655Z,9.719646
2022-08-26T00:57:49.624Z,9.719645
2022-08-26T00:58:49.616Z,9.719644
2022-08-26T00:59:49.604Z,9.719637
2022-08-26T01:00:49.647Z,9.719649
2022-08-26T01:01:49.638Z,9.719633
2022-08-26T01:02:49.579Z,9.719617
2022-08-26T01:03:49.569Z,9.719615
2022-08-26T01:04:49.561Z,9.719602
2022-08-26T01:05:50.549Z,9.719652
2022-08-26T01:06:49.549Z,9.719666
2022-08-26T01:07:49.837Z,9.719669
2022-08-26T01:08:49.516Z,9.719636
2022-08-26T01:09:49.510Z,9.719613
2022-08-26T01:10:49.504Z,9.719640
2022-08-26T01:11:49.501Z,9.719646
2022-08-26T01:12:49.484Z,9.719610
2022-08-26T01:13:49.474Z,9.719682
2022-08-26T01:14:49.464Z,9.719661
2022-08-26T01:15:49.451Z,9.719631
2022-08-26T01:16:49.491Z,9.719659
2022-08-26T01:17:49.429Z,9.719648
2022-08-26T01:18:49.429Z,9.719665
2022-08-26T01:19:49.414Z,9.719653
2022-08-26T01:20:49.408Z,9.719588
2022-08-26T01:21:49.411Z,9.719656
2022-08-26T01:22:49.389Z,9.719612
2022-08-26T01:23:49.397Z,9.719713
2022-08-26T01:24:49.374Z,9.719640
2022-08-26T01:25:49.354Z,9.719644
2022-08-26T01:26:49.368Z,9.719629
2022-08-26T01:27:49.342Z,9.719628
2022-08-26T01:28:51.429Z,9.719687
2022-08-26T01:29:49.328Z,9.719625
2022-08-26T01:30:49.317Z,9.719696
2022-08-26T01:31:49.341Z,9.719737
2022-08-26T01:32:49.305Z,9.719741
2022-08-26T01:33:49.287Z,9.719826
2022-08-26T01:34:49.280Z,9.719763
2022-08-26T01:35:49.266Z,9.719714
2022-08-26T01:36:51.280Z,9.719675
2022-08-26T01:37:49.271Z,9.719625
2022-08-26T01:38:49.237Z,9.719612
2022-08-26T01:39:49.308Z,9.719558
2022-08-26T01:40:49.223Z,9.719563
2022-08-26T01:41:53.617Z,9.719612
2022-08-26T01:42:49.203Z,9.719598
2022-08-26T01:43:49.192Z,9.719627
2022-08-26T01:44:49.185Z,9.719620
2022-08-26T01:45:49.402Z,9.719676
2022-08-26T01:46:49.173Z,9.719659
2022-08-26T01:47:49.158Z,9.719679
2022-08-26T01:48:49.144Z,9.719708
2022-08-26T01:49:50.878Z,9.719634
2022-08-26T01:50:49.122Z,9.719652
2022-08-26T01:51:49.128Z,9.719554
2022-08-26T01:52:50.008Z,9.719586
2022-08-26T01:53:50.091Z,9.719708
2022-08-26T01:54:50.449Z,9.719768
2022-08-26T01:55:49.157Z,9.719895
2022-08-26T01:56:49.242Z,9.719697
2022-08-26T01:57:49.059Z,9.719616
2022-08-26T01:58:49.059Z,9.719731
2022-08-26T01:59:49.041Z,9.719422
2022-08-26T02:00:49.070Z,9.719716
2022-08-26T02:01:49.029Z,9.719592
2022-08-26T02:02:49.007Z,9.719794
2022-08-26T02:03:49.001Z,9.719767
2022-08-26T02:04:49.049Z,9.719952
2022-08-26T02:05:51.460Z,9.719861
2022-08-26T02:06:48.983Z,9.719711
2022-08-26T02:07:49.003Z,9.719634
2022-08-26T02:08:48.952Z,9.719654
2022-08-26T02:09:48.932Z,9.719678
2022-08-26T02:10:48.932Z,9.719628
2022-08-26T02:11:48.938Z,9.719518
2022-08-26T02:12:48.937Z,9.719589
2022-08-26T02:13:48.903Z,9.719597
2022-08-26T02:14:48.898Z,9.719609
2022-08-26T02:15:48.886Z,9.719624
2022-08-26T02:16:48.889Z,9.719614
2022-08-26T02:17:48.866Z,9.719582
2022-08-26T02:18:48.857Z,9.719625
2022-08-26T02:19:48.847Z,9.719614
2022-08-26T02:20:51.521Z,9.719627
2022-08-26T02:21:51.267Z,9.719602
2022-08-26T02:22:48.820Z,9.719658
2022-08-26T02:23:48.810Z,9.719679
2022-08-26T02:24:48.804Z,9.719638
2022-08-26T02:25:48.788Z,9.719615
2022-08-26T02:26:48.799Z,9.719583
2022-08-26T02:27:48.770Z,9.719629
2022-08-26T02:28:48.762Z,9.719630
2022-08-26T02:29:48.749Z,9.719613
2022-08-26T02:30:48.744Z,9.719672
2022-08-26T02:31:48.882Z,9.719643
2022-08-26T02:32:49.631Z,9.719590
2022-08-26T02:33:48.712Z,9.719564
2022-08-26T02:34:48.700Z,9.719557
2022-08-26T02:35:48.693Z,9.719592
2022-08-26T02:36:48.684Z,9.719614
2022-08-26T02:37:49.528Z,9.719660
2022-08-26T02:38:48.791Z,9.719687
2022-08-26T02:39:48.699Z,9.719682
2022-08-26T02:40:48.638Z,9.719425
2022-08-26T02:41:48.631Z,9.719417
2022-08-26T02:42:48.655Z,9.719504
2022-08-26T02:43:48.609Z,9.719528
2022-08-26T02:44:48.604Z,9.719538
2022-08-26T02:45:48.590Z,9.719658
2022-08-26T02:46:48.610Z,9.719616
2022-08-26T02:47:48.587Z,9.719686
2022-08-26T02:48:48.566Z,9.719646
2022-08-26T02:49:48.550Z,9.719820
2022-08-26T02:50:48.548Z,9.719791
2022-08-26T02:51:48.535Z,9.719762
2022-08-26T02:52:48.667Z,9.719837
2022-08-26T02:53:48.702Z,9.719830
2022-08-26T02:54:49.479Z,9.720200
2022-08-26T02:55:48.498Z,9.719506
2022-08-26T02:56:48.489Z,9.719377
2022-08-26T02:57:48.489Z,9.719532
2022-08-26T02:58:48.477Z,9.719632
2022-08-26T02:59:48.458Z,9.719691
2022-08-26T03:00:53.576Z,9.719659
2022-08-26T03:01:49.552Z,9.719599
2022-08-26T03:02:48.452Z,9.719564
2022-08-26T03:03:48.421Z,9.719622
2022-08-26T03:04:58.144Z,9.719629
2022-08-26T03:05:49.406Z,9.719606
2022-08-26T03:06:52.977Z,9.719611
2022-08-26T03:07:48.403Z,9.719621
2022-08-26T03:08:48.382Z,9.719669
2022-08-26T03:09:48.367Z,9.719611
2022-08-26T03:10:48.360Z,9.719627
2022-08-26T03:11:48.351Z,9.719631
2022-08-26T03:12:48.351Z,9.719597
2022-08-26T03:13:48.331Z,9.719609
2022-08-26T03:14:48.321Z,9.719503
2022-08-26T03:15:48.368Z,9.719555
2022-08-26T03:16:48.540Z,9.719500
2022-08-26T03:17:48.396Z,9.719593
2022-08-26T03:18:52.562Z,9.719575
2022-08-26T03:19:51.742Z,9.719577
2022-08-26T03:20:48.260Z,9.719568
2022-08-26T03:21:48.249Z,9.719535
2022-08-26T03:22:48.259Z,9.719638
2022-08-26T03:23:48.233Z,9.719577
2022-08-26T03:24:48.227Z,9.719539
2022-08-26T03:25:48.216Z,9.719607
2022-08-26T03:26:52.371Z,9.719616
2022-08-26T03:27:48.215Z,9.719632
2022-08-26T03:28:48.191Z,9.719602
2022-08-26T03:29:49.551Z,9.719613
2022-08-26T03:30:48.172Z,9.719591
2022-08-26T03:31:48.239Z,9.719564
2022-08-26T03:32:48.167Z,9.719581
2022-08-26T03:33:48.139Z,9.719576
2022-08-26T03:34:48.139Z,9.719617
2022-08-26T03:35:50.479Z,9.719615
2022-08-26T03:36:48.112Z,9.719607
2022-08-26T03:37:48.109Z,9.719630
2022-08-26T03:38:48.102Z,9.719662
2022-08-26T03:39:48.156Z,9.719643
2022-08-26T03:40:48.083Z,9.719637
2022-08-26T03:41:48.064Z,9.719627
2022-08-26T03:42:48.060Z,9.719606
2022-08-26T03:43:48.044Z,9.719595
2022-08-26T03:44:48.031Z,9.719592
2022-08-26T03:45:48.015Z,9.719599
2022-08-26T03:46:48.030Z,9.719606
2022-08-26T03:47:48.025Z,9.719614
2022-08-26T03:48:47.997Z,9.719637
2022-08-26T03:49:47.983Z,9.719657
2022-08-26T03:50:48.827Z,9.719693
2022-08-26T03:51:47.963Z,9.719691
2022-08-26T03:52:47.965Z,9.719688
2022-08-26T03:53:47.935Z,9.719671
2022-08-26T03:54:47.937Z,9.719666
2022-08-26T03:55:47.920Z,9.719660
2022-08-26T03:56:47.918Z,9.719631
2022-08-26T03:57:47.921Z,9.719604
2022-08-26T03:58:47.892Z,9.719607
2022-08-26T03:59:47.885Z,9.719627
2022-08-26T04:00:47.868Z,9.719625
2022-08-26T04:01:49.050Z,9.719653
2022-08-26T04:02:48.054Z,9.719655
2022-08-26T04:03:47.847Z,9.719671
2022-08-26T04:04:47.835Z,9.719656
2022-08-26T04:05:47.825Z,9.719644
2022-08-26T04:06:47.820Z,9.719678
2022-08-26T04:07:47.821Z,9.719668
2022-08-26T04:08:47.796Z,9.719654
2022-08-26T04:09:47.789Z,9.719624
2022-08-26T04:10:47.778Z,9.719675
2022-08-26T04:11:50.700Z,9.719673
2022-08-26T04:12:47.790Z,9.719655
2022-08-26T04:13:47.751Z,9.719666
2022-08-26T04:14:47.738Z,9.719635
2022-08-26T04:15:47.885Z,9.719623
2022-08-26T04:16:47.724Z,9.719643
2022-08-26T04:17:47.800Z,9.719681
2022-08-26T04:18:47.701Z,9.719659
2022-08-26T04:19:47.695Z,9.719695
2022-08-26T04:20:47.679Z,9.719618
2022-08-26T04:21:47.677Z,9.719709
2022-08-26T04:22:47.675Z,9.719754
2022-08-26T04:23:48.123Z,9.719777
2022-08-26T04:24:47.639Z,9.719717
2022-08-26T04:25:47.638Z,9.719626
2022-08-26T04:26:47.623Z,9.719631
2022-08-26T04:27:48.266Z,9.719667
2022-08-26T04:28:47.639Z,9.719643
2022-08-26T04:29:47.980Z,9.719618
2022-08-26T04:30:47.585Z,9.719591
2022-08-26T04:31:47.578Z,9.719626
2022-08-26T04:32:47.580Z,9.719641
2022-08-26T04:33:47.557Z,9.719629
2022-08-26T04:34:47.545Z,9.719661
2022-08-26T04:35:47.541Z,9.719626
2022-08-26T04:36:47.531Z,9.719619
2022-08-26T04:37:47.519Z,9.719631
2022-08-26T04:38:47.519Z,9.719655
2022-08-26T04:39:47.528Z,9.719638
2022-08-26T04:40:47.489Z,9.719666
2022-08-26T04:41:47.673Z,9.719670
2022-08-26T04:42:47.468Z,9.719644
2022-08-26T04:43:47.472Z,9.719660
2022-08-26T04:44:47.450Z,9.719643
2022-08-26T04:45:47.441Z,9.719637
2022-08-26T04:46:47.453Z,9.719707
2022-08-26T04:47:47.424Z,9.719736
2022-08-26T04:48:47.422Z,9.719691
2022-08-26T04:49:47.409Z,9.719667
2022-08-26T04:50:49.603Z,9.719588
2022-08-26T04:51:47.387Z,9.719663
2022-08-26T04:52:47.373Z,9.719721
2022-08-26T04:53:47.385Z,9.719641
2022-08-26T04:54:47.385Z,9.719694
2022-08-26T04:55:48.531Z,9.719646
2022-08-26T04:56:47.352Z,9.719711
2022-08-26T04:57:47.325Z,9.719665
2022-08-26T04:58:47.346Z,9.719635
2022-08-26T04:59:47.310Z,9.719653
2022-08-26T05:00:47.295Z,9.719667
2022-08-26T05:01:47.312Z,9.719673
2022-08-26T05:02:47.278Z,9.719682
2022-08-26T05:03:47.297Z,9.719679
2022-08-26T05:04:47.258Z,9.719646
2022-08-26T05:05:47.257Z,9.719634
2022-08-26T05:06:47.238Z,9.719582
2022-08-26T05:07:47.239Z,9.719629
2022-08-26T05:08:47.238Z,9.719628
2022-08-26T05:09:47.215Z,9.719667
2022-08-26T05:10:47.206Z,9.719646
2022-08-26T05:11:48.609Z,9.719631
2022-08-26T05:12:48.180Z,9.719601
2022-08-26T05:13:47.203Z,9.719661
2022-08-26T05:14:47.167Z,9.719629
2022-08-26T05:15:47.218Z,9.719572
2022-08-26T05:16:47.956Z,9.719646
2022-08-26T05:17:47.137Z,9.719554
2022-08-26T05:18:47.145Z,9.719596
2022-08-26T05:19:47.123Z,9.719769
2022-08-26T05:20:47.110Z,9.719119
2022-08-26T05:21:47.300Z,9.718863
2022-08-26T05:22:47.089Z,9.719256
2022-08-26T05:23:47.215Z,9.719423
2022-08-26T05:24:47.069Z,9.719479
2022-08-26T05:25:47.075Z,9.719563
2022-08-26T05:26:47.049Z,9.719614
2022-08-26T05:27:47.044Z,9.719610
2022-08-26T05:28:47.046Z,9.719578
2022-08-26T05:29:47.027Z,9.719557
2022-08-26T05:30:48.064Z,9.719585
2022-08-26T05:31:47.006Z,9.719513
2022-08-26T05:32:46.993Z,9.719513
2022-08-26T05:33:47.007Z,9.719538
2022-08-26T05:34:46.964Z,9.719510
2022-08-26T05:35:46.975Z,9.719535
2022-08-26T05:36:46.968Z,9.719520
2022-08-26T05:37:46.948Z,9.719519
2022-08-26T05:38:46.957Z,9.719494
2022-08-26T05:39:51.403Z,9.719532
2022-08-26T05:40:46.909Z,9.719548
2022-08-26T05:41:46.903Z,9.719599
2022-08-26T05:42:46.893Z,9.719638
2022-08-26T05:43:46.918Z,9.719603
2022-08-26T05:44:56.108Z,9.719633
2022-08-26T05:45:47.866Z,9.719627
2022-08-26T05:46:46.901Z,9.719499
2022-08-26T05:47:46.852Z,9.719596
2022-08-26T05:48:46.849Z,9.719604
2022-08-26T05:49:49.460Z,9.719672
2022-08-26T05:50:46.821Z,9.719640
2022-08-26T05:51:47.680Z,9.719593
2022-08-26T05:52:46.805Z,9.719595
2022-08-26T05:53:54.638Z,9.719580
2022-08-26T05:54:47.872Z,9.719594
2022-08-26T05:55:46.776Z,9.719593
2022-08-26T05:56:46.759Z,9.719586
2022-08-26T05:57:46.754Z,9.719565
2022-08-26T05:58:46.848Z,9.719584
2022-08-26T05:59:46.728Z,9.719588
2022-08-26T06:00:46.719Z,9.719569
2022-08-26T06:01:46.785Z,9.719632
2022-08-26T06:02:48.465Z,9.719588
2022-08-26T06:03:46.688Z,9.719606
2022-08-26T06:04:46.691Z,9.719616
2022-08-26T06:05:46.685Z,9.719605
2022-08-26T06:06:46.668Z,9.719518
2022-08-26T06:07:46.656Z,9.719495
2022-08-26T06:08:47.015Z,9.719488
2022-08-26T06:09:46.631Z,9.719636
2022-08-26T06:10:46.701Z,9.719484
2022-08-26T06:11:46.618Z,9.719604
2022-08-26T06:12:46.600Z,9.719570
2022-08-26T06:13:46.599Z,9.719586
2022-08-26T06:14:46.596Z,9.719584
2022-08-26T06:15:46.609Z,9.719597
2022-08-26T06:16:46.557Z,9.719597
2022-08-26T06:17:46.552Z,9.719598
2022-08-26T06:18:46.538Z,9.719612
2022-08-26T06:19:46.547Z,9.719603
2022-08-26T06:20:54.602Z,9.719609
2022-08-26T06:21:47.519Z,9.719726
2022-08-26T06:22:47.506Z,9.719743
2022-08-26T06:23:46.503Z,9.719672
2022-08-26T06:24:46.499Z,9.719674
2022-08-26T06:25:46.472Z,9.719554
2022-08-26T06:26:46.672Z,9.719782
2022-08-26T06:27:46.453Z,9.720003
2022-08-26T06:28:46.446Z,9.720072
2022-08-26T06:29:46.551Z,9.720223
2022-08-26T06:30:46.466Z,9.720100
2022-08-26T06:31:46.420Z,9.719668
2022-08-26T06:32:46.413Z,9.719692
2022-08-26T06:33:46.399Z,9.719654
2022-08-26T06:34:46.418Z,9.719613
2022-08-26T06:35:46.419Z,9.719581
2022-08-26T06:36:46.401Z,9.719584
2022-08-26T06:37:46.401Z,9.719605
2022-08-26T06:38:46.382Z,9.719627
2022-08-26T06:39:46.398Z,9.719613
2022-08-26T06:40:46.373Z,9.719597
2022-08-26T06:41:46.366Z,9.719563
2022-08-26T06:42:46.316Z,9.719546
2022-08-26T06:43:46.335Z,9.719527
2022-08-26T06:44:46.306Z,9.719614
2022-08-26T06:45:46.285Z,9.719634
2022-08-26T06:46:46.299Z,9.719672
2022-08-26T06:47:46.271Z,9.719565
2022-08-26T06:48:46.250Z,9.719621
2022-08-26T06:49:46.348Z,9.719625
2022-08-26T06:50:46.233Z,9.719572
2022-08-26T06:51:46.224Z,9.719598
2022-08-26T06:52:46.211Z,9.719553
2022-08-26T06:53:46.200Z,9.719603
2022-08-26T06:54:46.204Z,9.719637
2022-08-26T06:55:46.185Z,9.719630
2022-08-26T06:56:46.174Z,9.719621
2022-08-26T06:57:46.166Z,9.719595
2022-08-26T06:58:46.171Z,9.719633
2022-08-26T06:59:46.160Z,9.719579
2022-08-26T07:00:47.509Z,9.719578
2022-08-26T07:01:46.169Z,9.719553
2022-08-26T07:02:47.024Z,9.719555
2022-08-26T07:03:46.546Z,9.719585
2022-08-26T07:04:47.924Z,9.719612
2022-08-26T07:05:46.090Z,9.719662
2022-08-26T07:06:46.080Z,9.719597
2022-08-26T07:07:46.065Z,9.719684
2022-08-26T07:08:46.060Z,9.719727
2022-08-26T07:09:46.110Z,9.719794
2022-08-26T07:10:46.030Z,9.719843
2022-08-26T07:11:46.026Z,9.719737
2022-08-26T07:12:47.229Z,9.719569
2022-08-26T07:13:46.005Z,9.719570
2022-08-26T07:14:47.502Z,9.719573
2022-08-26T07:15:46.022Z,9.719636
2022-08-26T07:16:45.975Z,9.719580
2022-08-26T07:17:45.965Z,9.719653
2022-08-26T07:18:45.959Z,9.719572
2022-08-26T07:19:45.970Z,9.719618
2022-08-26T07:20:45.936Z,9.719579
2022-08-26T07:21:45.931Z,9.719564
2022-08-26T07:22:45.914Z,9.719596
2022-08-26T07:23:45.915Z,9.719632
2022-08-26T07:24:45.913Z,9.719660
2022-08-26T07:25:45.894Z,9.719699
2022-08-26T07:26:45.884Z,9.719686
2022-08-26T07:27:45.873Z,9.719599
2022-08-26T07:28:46.865Z,9.719540
2022-08-26T07:29:45.889Z,9.719728
2022-08-26T07:30:45.899Z,9.719681
2022-08-26T07:31:45.841Z,9.719663
2022-08-26T07:32:46.001Z,9.719604
2022-08-26T07:33:45.821Z,9.719629
2022-08-26T07:34:45.825Z,9.719626
2022-08-26T07:35:45.798Z,9.719641
2022-08-26T07:36:45.791Z,9.719634
2022-08-26T07:37:45.782Z,9.719629
2022-08-26T07:38:45.773Z,9.719602
2022-08-26T07:39:45.775Z,9.719629
2022-08-26T07:40:45.750Z,9.719664
2022-08-26T07:41:45.740Z,9.719660
2022-08-26T07:42:45.734Z,9.719654
2022-08-26T07:43:45.727Z,9.719623
2022-08-26T07:44:45.728Z,9.719638
2022-08-26T07:45:45.739Z,9.719654
2022-08-26T07:46:52.389Z,9.719628
2022-08-26T07:47:46.685Z,9.719629
2022-08-26T07:48:46.207Z,9.719661
2022-08-26T07:49:45.930Z,9.719634
2022-08-26T07:50:49.453Z,9.719647
2022-08-26T07:51:46.651Z,9.719647
2022-08-26T07:52:45.638Z,9.719679
2022-08-26T07:53:47.878Z,9.719648
2022-08-26T07:54:45.636Z,9.719668
2022-08-26T07:55:45.605Z,9.719714
2022-08-26T07:56:45.596Z,9.719668
2022-08-26T07:57:45.590Z,9.719718
2022-08-26T07:58:48.999Z,9.719649
2022-08-26T07:59:46.586Z,9.719584
2022-08-26T08:00:45.557Z,9.719701
2022-08-26T08:01:45.630Z,9.719600
2022-08-26T08:02:45.539Z,9.719629
2022-08-26T08:03:45.536Z,9.719735
2022-08-26T08:04:45.571Z,9.719717
2022-08-26T08:05:46.358Z,9.719649
2022-08-26T08:06:45.508Z,9.719660
2022-08-26T08:07:45.625Z,9.719684
2022-08-26T08:08:45.675Z,9.719640
2022-08-26T08:09:45.766Z,9.719671
2022-08-26T08:10:48.745Z,9.719671
2022-08-26T08:11:45.455Z,9.719646
2022-08-26T08:12:45.473Z,9.719629
2022-08-26T08:13:45.441Z,9.719642
2022-08-26T08:14:45.449Z,9.719670
2022-08-26T08:15:45.424Z,9.719628
2022-08-26T08:16:46.134Z,9.719616
2022-08-26T08:17:45.404Z,9.719597
2022-08-26T08:18:45.399Z,9.719598
2022-08-26T08:19:45.424Z,9.719604
2022-08-26T08:20:54.670Z,9.719616
2022-08-26T08:21:46.368Z,9.719581
2022-08-26T08:22:45.361Z,9.719604
2022-08-26T08:23:45.346Z,9.719656
2022-08-26T08:24:45.359Z,9.719648
2022-08-26T08:25:45.327Z,9.719621
2022-08-26T08:26:45.323Z,9.719615
2022-08-26T08:27:45.306Z,9.719633
2022-08-26T08:28:45.300Z,9.719613
2022-08-26T08:29:45.309Z,9.719598
2022-08-26T08:30:45.343Z,9.719637
2022-08-26T08:31:56.875Z,9.719673
2022-08-26T08:32:46.267Z,9.719727
2022-08-26T08:33:45.259Z,9.719697
2022-08-26T08:34:45.428Z,9.719675
2022-08-26T08:35:45.239Z,9.719632
2022-08-26T08:36:45.232Z,9.719638
2022-08-26T08:37:45.218Z,9.719667
2022-08-26T08:38:45.214Z,9.719625
2022-08-26T08:39:45.208Z,9.719584
2022-08-26T08:40:45.193Z,9.719586
2022-08-26T08:41:45.176Z,9.719660
2022-08-26T08:42:45.222Z,9.719722
2022-08-26T08:43:45.158Z,9.719715
2022-08-26T08:44:45.198Z,9.719701
2022-08-26T08:45:47.094Z,9.719720
2022-08-26T08:46:45.135Z,9.719700
2022-08-26T08:47:45.123Z,9.719728
2022-08-26T08:48:45.124Z,9.719763
2022-08-26T08:49:45.196Z,9.719812
2022-08-26T08:50:45.095Z,9.719763
2022-08-26T08:51:45.083Z,9.719666
2022-08-26T08:52:45.083Z,9.719718
2022-08-26T08:53:45.065Z,9.719720
2022-08-26T08:54:45.060Z,9.719665
2022-08-26T08:55:45.054Z,9.719680
2022-08-26T08:56:45.035Z,9.719717
2022-08-26T08:57:45.033Z,9.719715
2022-08-26T08:58:45.021Z,9.719726
2022-08-26T08:59:45.009Z,9.719724
2022-08-26T09:00:45.025Z,9.719702
2022-08-26T09:01:45.080Z,9.719723
2022-08-26T09:02:45.015Z,9.719723
2022-08-26T09:03:44.973Z,9.719687
2022-08-26T09:04:44.975Z,9.719644
2022-08-26T09:05:48.733Z,9.719572
2022-08-26T09:06:44.989Z,9.719571
2022-08-26T09:07:44.929Z,9.719582
2022-08-26T09:08:44.926Z,9.719702
2022-08-26T09:09:44.916Z,9.719620
2022-08-26T09:10:44.997Z,9.719620
2022-08-26T09:11:44.899Z,9.719646
2022-08-26T09:12:44.892Z,9.719653
2022-08-26T09:13:44.882Z,9.719622
2022-08-26T09:14:44.874Z,9.719619
2022-08-26T09:15:44.876Z,9.719650
2022-08-26T09:16:44.918Z,9.719750
2022-08-26T09:17:44.847Z,9.719792
2022-08-26T09:18:46.096Z,9.719742
2022-08-26T09:19:44.822Z,9.719723
2022-08-26T09:20:45.474Z,9.719685
2022-08-26T09:21:44.806Z,9.719713
2022-08-26T09:22:44.795Z,9.719735
2022-08-26T09:23:47.063Z,9.719697
2022-08-26T09:24:48.527Z,9.719695
2022-08-26T09:25:44.831Z,9.719727
2022-08-26T09:26:44.761Z,9.719640
2022-08-26T09:27:44.750Z,9.719695
2022-08-26T09:28:44.741Z,9.719718
2022-08-26T09:29:44.736Z,9.719707
2022-08-26T09:30:44.848Z,9.719738
2022-08-26T09:31:44.712Z,9.719717
2022-08-26T09:32:44.700Z,9.719746
2022-08-26T09:33:45.683Z,9.719790
2022-08-26T09:34:44.691Z,9.719795
2022-08-26T09:35:44.685Z,9.719781
2022-08-26T09:36:44.667Z,9.719758
2022-08-26T09:38:44.659Z,9.719815
2022-08-26T09:39:44.633Z,9.719794
2022-08-26T09:40:44.641Z,9.719571
2022-08-26T09:41:44.617Z,9.719678
2022-08-26T09:42:44.664Z,9.719717
2022-08-26T09:43:44.599Z,9.719534
2022-08-26T09:44:44.595Z,9.719624
2022-08-26T09:45:50.759Z,9.719596
2022-08-26T09:46:44.572Z,9.719600
2022-08-26T09:47:44.558Z,9.719677
2022-08-26T09:48:44.561Z,9.719605
2022-08-26T09:49:44.543Z,9.719599
2022-08-26T09:50:44.554Z,9.719628
2022-08-26T09:51:44.520Z,9.719613
2022-08-26T09:52:45.522Z,9.719646
2022-08-26T09:53:44.513Z,9.719632
2022-08-26T09:54:46.007Z,9.719640
2022-08-26T09:55:44.796Z,9.719644
2022-08-26T09:56:44.529Z,9.719665
2022-08-26T09:57:44.467Z,9.719613
2022-08-26T09:58:44.472Z,9.719711
2022-08-26T09:59:44.470Z,9.719738
2022-08-26T10:00:44.449Z,9.719529
2022-08-26T10:01:44.938Z,9.719562
2022-08-26T10:02:47.910Z,9.719622
2022-08-26T10:03:44.469Z,9.719540
2022-08-26T10:04:44.468Z,9.719569
2022-08-26T10:05:44.403Z,9.719551
2022-08-26T10:06:44.432Z,9.719623
2022-08-26T10:07:44.415Z,9.719647
2022-08-26T10:08:47.620Z,9.719599
2022-08-26T10:09:44.410Z,9.719586
2022-08-26T10:10:45.124Z,9.719646
2022-08-26T10:11:44.360Z,9.719640
2022-08-26T10:12:44.357Z,9.719573
2022-08-26T10:13:44.344Z,9.719558
2022-08-26T10:15:50.088Z,9.719597
2022-08-26T10:16:45.473Z,9.719568
2022-08-26T10:17:44.314Z,9.719579
2022-08-26T10:18:44.300Z,9.719586
2022-08-26T10:19:57.125Z,9.719597
2022-08-26T10:20:45.283Z,9.719566
2022-08-26T10:21:44.281Z,9.719546
2022-08-26T10:22:44.272Z,9.719546
2022-08-26T10:23:45.125Z,9.719588
2022-08-26T10:24:44.272Z,9.719530
2022-08-26T10:25:44.246Z,9.719552
2022-08-26T10:26:44.244Z,9.719502
2022-08-26T10:27:49.626Z,9.719503
2022-08-26T10:28:45.365Z,9.719480
2022-08-26T10:29:44.231Z,9.719504
2022-08-26T10:30:44.299Z,9.719505
2022-08-26T10:31:44.372Z,9.719481
2022-08-26T10:32:44.203Z,9.719520
2022-08-26T10:33:44.183Z,9.719518
2022-08-26T10:34:44.205Z,9.719476
2022-08-26T10:35:44.169Z,9.719515
2022-08-26T10:37:07.084Z,9.719465
2022-08-26T10:37:45.171Z,9.719415
2022-08-26T10:38:44.244Z,9.719446
2022-08-26T10:39:44.148Z,9.719434
2022-08-26T10:40:44.165Z,9.719392
2022-08-26T10:41:44.123Z,9.719473
2022-08-26T10:42:44.137Z,9.719626
2022-08-26T10:43:44.243Z,9.719550
2022-08-26T10:44:44.304Z,9.719689
2022-08-26T10:45:44.155Z,9.719644
2022-08-26T10:46:44.142Z,9.719826
2022-08-26T10:47:44.069Z,9.719973
2022-08-26T10:48:44.066Z,9.719737
2022-08-26T10:49:44.072Z,9.719441
2022-08-26T10:50:44.060Z,9.719659
2022-08-26T10:51:45.755Z,9.719419
2022-08-26T10:52:44.026Z,9.719481
2022-08-26T10:53:44.393Z,9.719696
2022-08-26T10:54:44.030Z,9.719554
2022-08-26T10:55:44.007Z,9.719413
2022-08-26T10:56:44.026Z,9.719436
2022-08-26T10:57:43.987Z,9.719348
2022-08-26T10:58:44.508Z,9.719325
2022-08-26T10:59:43.978Z,9.719362
2022-08-26T11:00:44.196Z,9.719469
2022-08-26T11:01:44.059Z,9.719538
2022-08-26T11:02:46.928Z,9.719575
2022-08-26T11:03:43.966Z,9.719624
2022-08-26T11:04:48.183Z,9.719653
2022-08-26T11:05:43.910Z,9.719593
2022-08-26T11:06:43.914Z,9.719567
2022-08-26T11:07:43.895Z,9.719514
2022-08-26T11:08:43.887Z,9.719509
2022-08-26T11:09:43.888Z,9.719556
2022-08-26T11:10:43.870Z,9.719549
2022-08-26T11:11:43.857Z,9.719538
2022-08-26T11:12:43.849Z,9.719584
2022-08-26T11:13:43.834Z,9.719601
2022-08-26T11:14:53.643Z,9.719640
2022-08-26T11:15:45.011Z,9.719580
2022-08-26T11:16:43.898Z,9.719563
2022-08-26T11:17:43.795Z,9.719635
2022-08-26T11:18:43.790Z,9.719698
2022-08-26T11:20:00.305Z,9.719588
2022-08-26T11:20:44.775Z,9.719648
2022-08-26T11:21:43.758Z,9.719551
2022-08-26T11:22:47.489Z,9.719613
2022-08-26T11:23:43.768Z,9.719569
2022-08-26T11:24:43.754Z,9.719611
2022-08-26T11:25:43.729Z,9.719597
2022-08-26T11:26:55.299Z,9.719621
2022-08-26T11:27:44.711Z,9.719604
2022-08-26T11:28:44.125Z,9.719583
2022-08-26T11:29:43.708Z,9.719599
2022-08-26T11:30:43.687Z,9.719597
2022-08-26T11:31:43.714Z,9.719591
2022-08-26T11:32:43.672Z,9.719568
2022-08-26T11:33:43.658Z,9.719539
2022-08-26T11:34:43.682Z,9.719501
2022-08-26T11:35:43.663Z,9.719442
2022-08-26T11:36:43.756Z,9.719429
2022-08-26T11:37:43.619Z,9.719440
2022-08-26T11:38:43.617Z,9.719453
2022-08-26T11:39:46.810Z,9.719465
2022-08-26T11:40:44.654Z,9.719500
2022-08-26T11:41:43.588Z,9.719506
2022-08-26T11:42:43.593Z,9.719487
2022-08-26T11:43:43.722Z,9.719509
2022-08-26T11:44:49.187Z,9.719496
2022-08-26T11:45:43.618Z,9.719451
2022-08-26T11:46:43.547Z,9.719496